sensor_id;sensor_type;location;lat;lon;timestamp;temperature;humidity
45735;DHT22;31446;49.632;8.328;2023-08-17T00:13:03;18.40;99.90
45735;DHT22;31446;49.632;8.328;2023-08-17T00:28:09;18.40;99.90
45735;DHT22;31446;49.632;8.328;2023-08-17T00:43:16;18.20;99.90
45735;DHT22;31446;49.632;8.328;2023-08-17T00:58:23;18.20;99.90
45735;DHT22;31446;49.632;8.328;2023-08-17T01:13:35;18.10;99.90
45735;DHT22;31446;49.632;8.328;2023-08-17T01:28:43;17.90;99.90
45735;DHT22;31446;49.632;8.328;2023-08-17T01:43:50;17.90;99.90
45735;DHT22;31446;49.632;8.328;2023-08-17T01:58:57;17.90;99.90
45735;DHT22;31446;49.632;8.328;2023-08-17T02:14:03;17.80;99.90
45735;DHT22;31446;49.632;8.328;2023-08-17T02:29:10;17.80;99.90
45735;DHT22;31446;49.632;8.328;2023-08-17T02:44:16;17.80;99.90
45735;DHT22;31446;49.632;8.328;2023-08-17T02:59:23;17.80;99.90
45735;DHT22;31446;49.632;8.328;2023-08-17T03:14:29;17.80;99.90
45735;DHT22;31446;49.632;8.328;2023-08-17T03:29:36;17.70;99.90
45735;DHT22;31446;49.632;8.328;2023-08-17T03:44:42;17.80;99.90
45735;DHT22;31446;49.632;8.328;2023-08-17T03:59:49;17.90;99.90
45735;DHT22;31446;49.632;8.328;2023-08-17T04:14:55;18.00;99.90
45735;DHT22;31446;49.632;8.328;2023-08-17T04:30:03;17.90;99.90
45735;DHT22;31446;49.632;8.328;2023-08-17T04:45:10;18.00;99.90
45735;DHT22;31446;49.632;8.328;2023-08-17T05:00:17;18.20;99.90
45735;DHT22;31446;49.632;8.328;2023-08-17T05:15:28;18.30;99.90
45735;DHT22;31446;49.632;8.328;2023-08-17T05:30:35;18.40;99.90
45735;DHT22;31446;49.632;8.328;2023-08-17T05:45:42;18.60;99.90
45735;DHT22;31446;49.632;8.328;2023-08-17T06:00:48;19.00;99.90
45735;DHT22;31446;49.632;8.328;2023-08-17T06:15:56;19.40;99.90
45735;DHT22;31446;49.632;8.328;2023-08-17T06:31:02;19.70;99.90
45735;DHT22;31446;49.632;8.328;2023-08-17T06:46:13;19.70;99.90
45735;DHT22;31446;49.632;8.328;2023-08-17T07:01:23;19.70;99.90
45735;DHT22;31446;49.632;8.328;2023-08-17T07:16:29;20.50;99.90
45735;DHT22;31446;49.632;8.328;2023-08-17T07:31:36;20.80;99.90
45735;DHT22;31446;49.632;8.328;2023-08-17T07:46:42;20.40;99.90
45735;DHT22;31446;49.632;8.328;2023-08-17T08:01:49;20.50;99.90
45735;DHT22;31446;49.632;8.328;2023-08-17T08:16:55;20.90;99.90
45735;DHT22;31446;49.632;8.328;2023-08-17T08:32:02;21.30;99.90
45735;DHT22;31446;49.632;8.328;2023-08-17T08:47:11;21.10;99.90
45735;DHT22;31446;49.632;8.328;2023-08-17T09:02:18;21.90;99.90
45735;DHT22;31446;49.632;8.328;2023-08-17T09:17:27;22.10;99.90
45735;DHT22;31446;49.632;8.328;2023-08-17T09:32:34;22.50;99.90
45735;DHT22;31446;49.632;8.328;2023-08-17T09:47:42;23.20;99.90
45735;DHT22;31446;49.632;8.328;2023-08-17T10:02:50;23.30;99.90
45735;DHT22;31446;49.632;8.328;2023-08-17T10:18:00;24.10;99.90
45735;DHT22;31446;49.632;8.328;2023-08-17T10:33:09;23.70;99.90
45735;DHT22;31446;49.632;8.328;2023-08-17T10:48:33;24.10;99.90
45735;DHT22;31446;49.632;8.328;2023-08-17T11:03:42;24.80;99.90
45735;DHT22;31446;49.632;8.328;2023-08-17T11:18:49;24.90;99.90
45735;DHT22;31446;49.632;8.328;2023-08-17T11:33:58;25.00;99.90
45735;DHT22;31446;49.632;8.328;2023-08-17T11:49:06;25.60;99.90
45735;DHT22;31446;49.632;8.328;2023-08-17T12:04:12;25.50;99.90
45735;DHT22;31446;49.632;8.328;2023-08-17T12:19:19;27.20;99.90
45735;DHT22;31446;49.632;8.328;2023-08-17T12:34:26;27.40;99.90
45735;DHT22;31446;49.632;8.328;2023-08-17T12:49:32;27.10;99.90
45735;DHT22;31446;49.632;8.328;2023-08-17T13:04:39;26.40;99.90
45735;DHT22;31446;49.632;8.328;2023-08-17T13:19:46;26.10;99.90
45735;DHT22;31446;49.632;8.328;2023-08-17T13:34:52;26.10;99.90
45735;DHT22;31446;49.632;8.328;2023-08-17T13:49:58;27.20;99.90
45735;DHT22;31446;49.632;8.328;2023-08-17T14:05:07;27.30;99.90
45735;DHT22;31446;49.632;8.328;2023-08-17T14:20:13;27.20;99.90
45735;DHT22;31446;49.632;8.328;2023-08-17T14:35:19;27.40;99.90
45735;DHT22;31446;49.632;8.328;2023-08-17T14:50:26;27.70;99.90
45735;DHT22;31446;49.632;8.328;2023-08-17T15:05:32;27.90;99.90
45735;DHT22;31446;49.632;8.328;2023-08-17T15:20:40;28.30;99.90
45735;DHT22;31446;49.632;8.328;2023-08-17T15:35:46;28.70;99.90
45735;DHT22;31446;49.632;8.328;2023-08-17T15:50:52;28.40;99.90
45735;DHT22;31446;49.632;8.328;2023-08-17T16:05:59;28.40;99.90
45735;DHT22;31446;49.632;8.328;2023-08-17T16:21:05;28.10;99.90
45735;DHT22;31446;49.632;8.328;2023-08-17T16:36:12;27.80;99.90
45735;DHT22;31446;49.632;8.328;2023-08-17T16:51:18;27.50;99.90
45735;DHT22;31446;49.632;8.328;2023-08-17T17:06:24;27.70;99.90
45735;DHT22;31446;49.632;8.328;2023-08-17T17:21:31;28.30;99.90
45735;DHT22;31446;49.632;8.328;2023-08-17T17:36:37;28.10;99.90
45735;DHT22;31446;49.632;8.328;2023-08-17T17:51:44;28.00;99.90
45735;DHT22;31446;49.632;8.328;2023-08-17T18:06:50;27.30;99.90
45735;DHT22;31446;49.632;8.328;2023-08-17T18:21:56;27.60;99.90
45735;DHT22;31446;49.632;8.328;2023-08-17T18:37:03;26.80;99.90
45735;DHT22;31446;49.632;8.328;2023-08-17T18:52:09;26.30;99.90
45735;DHT22;31446;49.632;8.328;2023-08-17T19:07:16;26.00;99.90
45735;DHT22;31446;49.632;8.328;2023-08-17T19:22:22;25.50;99.90
45735;DHT22;31446;49.632;8.328;2023-08-17T19:37:29;25.00;99.90
45735;DHT22;31446;49.632;8.328;2023-08-17T19:52:35;24.70;99.90
45735;DHT22;31446;49.632;8.328;2023-08-17T20:07:41;24.40;99.90
45735;DHT22;31446;49.632;8.328;2023-08-17T20:22:47;24.10;99.90
45735;DHT22;31446;49.632;8.328;2023-08-17T20:37:55;24.00;99.90
45735;DHT22;31446;49.632;8.328;2023-08-17T20:53:02;23.60;99.90
45735;DHT22;31446;49.632;8.328;2023-08-17T21:08:09;23.40;99.90
45735;DHT22;31446;49.632;8.328;2023-08-17T21:23:16;23.10;99.90
45735;DHT22;31446;49.632;8.328;2023-08-17T21:38:22;22.90;99.90
45735;DHT22;31446;49.632;8.328;2023-08-17T21:53:28;22.50;99.90
45735;DHT22;31446;49.632;8.328;2023-08-17T22:08:35;22.50;99.90
45735;DHT22;31446;49.632;8.328;2023-08-17T22:23:41;22.30;99.90
45735;DHT22;31446;49.632;8.328;2023-08-17T22:38:48;22.20;99.90
45735;DHT22;31446;49.632;8.328;2023-08-17T22:53:54;22.20;99.90
45735;DHT22;31446;49.632;8.328;2023-08-17T23:09:02;22.20;99.90
45735;DHT22;31446;49.632;8.328;2023-08-17T23:24:09;22.10;99.90
45735;DHT22;31446;49.632;8.328;2023-08-17T23:39:16;22.10;99.90
45735;DHT22;31446;49.632;8.328;2023-08-17T23:54:22;22.00;99.90
